Nuuk City

KL  EN  DA
ASIAQ
Weather Now GREENLAND SURVEY
Updated [WGT/WGST] Temperature [°C] Wind [m/s] Air pressure [hPa] Relative humidity [%] Precipitation [mm]
Present Wind chill Speed Max
30.11 17:00-5,6-15,412,9 ⇓21,3988620,0
30.11 16:00-5,3-14,310,6 ⇓14,6988600,2
30.11 15:00-5,7-14,59,9 ⇓14,1988690,0
30.11 14:00-5,7-14,39,3 ⇓12,6988680,0
30.11 13:00-4,9-13,08,8 ⇓12,1988640,0
30.11 12:00-5,2-12,67,1 ⇓11,0989660,0
30.11 11:00-5,4-12,97,0 ⇓9,8990680,0
30.11 10:00-4,6-10,75,1 ⇓7,5990660,0
30.11 09:00-4,5-10,95,5 ⇙8,1991630,0
30.11 08:00-3,7-10,66,9 ⇙9,1992620,0
30.11 07:00-3,5-9,85,7 ⇙9,2993620,0
30.11 06:00-3,3-9,76,1 ⇙9,1994590,0
30.11 05:00-3,1-9,35,8 ⇙8,7994580,0
30.11 04:00-2,7-7,94,4 ⇙7,4995550,0
30.11 03:00-1,8-6,03,4 ⇐6,8996550,0
30.11 02:00-1,9-6,33,6 ⇐7,0997550,0
30.11 01:00-1,2-3,51,7 ⇙3,2998590,0
30.11 00:00-1,0-5,33,8 ⇑7,3999580,0
29.11 23:00-1,0-6,35,4 ⇖9,3999580,0
29.11 22:00-1,1-6,75,7 ⇑10,81000620,0
29.11 21:00-1,5-8,07,2 ⇑10,51000710,0
29.11 20:00-1,2-8,49,1 ⇑13,31000690,0
29.11 19:00-1,4-9,210,9 ⇑14,91000720,0
29.11 18:00-1,4-9,411,7 ⇖16,41000710,0
29.11 17:00-1,2-8,710,1 ⇖14,41000780,0
Position: (64.17955556,-51.72608333)

[Back]